Terminal Aerodrome Forecast
Issued by NWS Wilmington, OH

Current Version | Previous Version | Text Only | Print | Product List | Glossary Off
Versions: 1 2 3 4 5 6 7 8 9 10 11 12 13 14 15

000
FTUS41 KILN 211729
TAFDAY
TAF
KDAY 211729Z 2118/2218 27014G22KT P6SM SCT040
     FM212300 29006KT P6SM SCT250
     FM221400 31005KT P6SM SCT035=

USA.gov is the U.S. government's official web portal to all federal, state and local government web resources and services.